Time;durP1;ratioP1;P1;durP2;ratioP2;P2;SDS_P1;SDS_P2;PMS_P1;PMS_P2;Temp;Humidity;BMP_temperature;BMP_pressure;BME280_temperature;BME280_humidity;BME280_pressure;Samples;Min_cycle;Max_cycle;Signal;HPM_P1;HPM_P2
2022/03/04 00:02:11;;;;;;;1.63;1.38;;;;;;;;;;4986745;28;20043;-74
2022/03/04 00:04:39;;;;;;;2.45;2.25;;;;;;;;;;4988388;28;20171;-75
2022/03/04 00:07:05;;;;;;;0.77;0.77;;;;;;;;;;5006863;28;20023;-74
2022/03/04 00:09:30;;;;;;;0.98;0.98;;;;;;;;;;4981626;28;20029;-74
2022/03/04 00:11:56;;;;;;;1.45;1.35;;;;;;;;;;4975286;28;20349;-74
2022/03/04 00:14:26;;;;;;;0.70;0.70;;;;;;;;;;4986329;28;20027;-75
2022/03/04 00:16:53;;;;;;;0.73;0.73;;;;;;;;;;4988225;28;20022;-74
2022/03/04 00:19:18;;;;;;;2.60;1.48;;;;;;;;;;4988367;28;20470;-72
2022/03/04 00:21:48;;;;;;;0.95;0.85;;;;;;;;;;4994736;28;20026;-75
2022/03/04 00:24:16;;;;;;;0.75;0.75;;;;;;;;;;4994165;28;20022;-74
2022/03/04 00:26:42;;;;;;;3.13;1.67;;;;;;;;;;4987151;28;20034;-74
2022/03/04 00:29:08;;;;;;;1.45;0.63;;;;;;;;;;4994502;28;20088;-75
2022/03/04 00:31:37;;;;;;;0.10;0.10;;;;;;;;;;4988106;28;20117;-74
2022/03/04 00:34:06;;;;;;;1.25;1.17;;;;;;;;;;4993650;28;20044;-75
2022/03/04 00:36:36;;;;;;;1.67;1.38;;;;;;;;;;4991889;28;20026;-74
2022/03/04 00:39:06;;;;;;;1.05;0.85;;;;;;;;;;4988136;28;20484;-74
2022/03/04 00:41:33;;;;;;;1.02;1.00;;;;;;;;;;4977001;28;20062;-75
2022/03/04 00:44:01;;;;;;;1.02;0.70;;;;;;;;;;4979385;28;20031;-74
2022/03/04 00:46:28;;;;;;;0.90;0.90;;;;;;;;;;4977282;28;20442;-74
2022/03/04 00:48:54;;;;;;;0.75;0.65;;;;;;;;;;4991147;28;20030;-75
2022/03/04 00:51:24;;;;;;;1.33;1.25;;;;;;;;;;4992496;28;20440;-74
2022/03/04 00:53:49;;;;;;;1.42;1.33;;;;;;;;;;4988039;28;20054;-75
2022/03/04 00:56:18;;;;;;;0.82;0.82;;;;;;;;;;4984176;28;20076;-74
2022/03/04 00:58:43;;;;;;;0.65;0.65;;;;;;;;;;4981539;28;20039;-74
2022/03/04 01:01:09;;;;;;;0.47;0.47;;;;;;;;;;4988024;28;20409;-74
2022/03/04 01:03:36;;;;;;;1.05;1.02;;;;;;;;;;4984742;28;20038;-75
2022/03/04 01:06:06;;;;;;;0.73;0.73;;;;;;;;;;4985588;28;20343;-75
2022/03/04 01:08:32;;;;;;;0.43;0.43;;;;;;;;;;4976916;28;20053;-75
2022/03/04 01:10:57;;;;;;;0.85;0.85;;;;;;;;;;4974382;28;20522;-74
2022/03/04 01:13:23;;;;;;;1.35;0.65;;;;;;;;;;4975569;28;20041;-74
2022/03/04 01:15:51;;;;;;;0.85;0.85;;;;;;;;;;4978796;28;20381;-74
2022/03/04 01:18:19;;;;;;;0.52;0.52;;;;;;;;;;4977362;28;20031;-75
2022/03/04 01:20:49;;;;;;;1.70;1.60;;;;;;;;;;4976645;28;20026;-75
2022/03/04 01:23:17;;;;;;;0.85;0.85;;;;;;;;;;4977853;28;20424;-75
2022/03/04 01:25:45;;;;;;;1.35;1.25;;;;;;;;;;4976327;28;20450;-74
2022/03/04 01:28:13;;;;;;;1.52;1.42;;;;;;;;;;4981321;28;20357;-74
2022/03/04 01:30:41;;;;;;;1.00;1.00;;;;;;;;;;4991196;28;20044;-74
2022/03/04 01:33:08;;;;;;;2.83;1.90;;;;;;;;;;4992531;28;20030;-74
2022/03/04 01:35:36;;;;;;;2.00;1.08;;;;;;;;;;4978338;28;20023;-72
2022/03/04 01:38:02;;;;;;;1.77;1.67;;;;;;;;;;4976406;28;20026;-72
2022/03/04 01:40:27;;;;;;;0.20;0.20;;;;;;;;;;4975336;28;20354;-72
2022/03/04 01:42:52;;;;;;;0.80;0.80;;;;;;;;;;4978976;28;20390;-72
2022/03/04 01:45:18;;;;;;;0.20;0.20;;;;;;;;;;4978552;28;20042;-72
2022/03/04 01:47:46;;;;;;;1.30;1.10;;;;;;;;;;4975904;28;20023;-72
2022/03/04 01:50:14;;;;;;;0.52;0.52;;;;;;;;;;4987871;28;20022;-72
2022/03/04 01:52:44;;;;;;;0.60;0.60;;;;;;;;;;4990287;28;20145;-72
2022/03/04 01:55:12;;;;;;;0.70;0.70;;;;;;;;;;4990199;28;20106;-72
2022/03/04 01:57:40;;;;;;;0.35;0.35;;;;;;;;;;4991125;28;20393;-72
2022/03/04 02:00:10;;;;;;;1.05;1.05;;;;;;;;;;4987568;28;20018;-72
2022/03/04 02:02:38;;;;;;;0.32;0.32;;;;;;;;;;4989427;28;20114;-71
2022/03/04 02:05:06;;;;;;;1.60;1.50;;;;;;;;;;4976499;28;20026;-72
2022/03/04 02:07:32;;;;;;;0.98;0.95;;;;;;;;;;4976929;28;20047;-72
2022/03/04 02:09:57;;;;;;;0.28;0.28;;;;;;;;;;4977147;28;20119;-74
2022/03/04 02:12:25;;;;;;;0.28;0.28;;;;;;;;;;4960413;28;20558;-72
2022/03/04 02:14:52;;;;;;;1.30;0.85;;;;;;;;;;4987549;28;20023;-72
2022/03/04 02:17:20;;;;;;;2.08;1.55;;;;;;;;;;4978434;28;20033;-73
2022/03/04 02:19:51;;;;;;;0.52;0.52;;;;;;;;;;4984415;28;20022;-72
2022/03/04 02:22:16;;;;;;;0.68;0.68;;;;;;;;;;4973858;28;20474;-71
2022/03/04 02:24:44;;;;;;;1.98;0.88;;;;;;;;;;4977657;28;20033;-72
2022/03/04 02:27:14;;;;;;;0.60;0.55;;;;;;;;;;4977883;28;20022;-74
2022/03/04 02:29:44;;;;;;;2.47;0.52;;;;;;;;;;4980072;28;20359;-74
2022/03/04 02:32:09;;;;;;;1.25;1.08;;;;;;;;;;4989042;28;20105;-74
2022/03/04 02:34:37;;;;;;;1.23;1.05;;;;;;;;;;4996283;28;20110;-74
2022/03/04 02:37:05;;;;;;;0.88;0.80;;;;;;;;;;4991241;28;20085;-74
2022/03/04 02:39:33;;;;;;;2.80;1.35;;;;;;;;;;4975054;28;20363;-74
2022/03/04 02:41:58;;;;;;;1.83;1.73;;;;;;;;;;4982317;28;20109;-74
2022/03/04 02:44:26;;;;;;;0.57;0.57;;;;;;;;;;4990498;28;20110;-75
2022/03/04 02:46:51;;;;;;;1.25;1.15;;;;;;;;;;4996538;28;20022;-74
2022/03/04 02:49:21;;;;;;;0.32;0.32;;;;;;;;;;4989809;28;20030;-75
2022/03/04 02:51:47;;;;;;;1.38;0.90;;;;;;;;;;4986988;28;20072;-74
2022/03/04 02:54:12;;;;;;;1.67;1.58;;;;;;;;;;4979390;28;20093;-74
2022/03/04 02:56:38;;;;;;;0.47;0.47;;;;;;;;;;4984060;28;20045;-74
2022/03/04 02:59:03;;;;;;;1.45;1.35;;;;;;;;;;4977794;28;20031;-73
2022/03/04 03:01:31;;;;;;;0.43;0.43;;;;;;;;;;4985228;28;20030;-74
2022/03/04 03:03:58;;;;;;;0.75;0.75;;;;;;;;;;4990344;28;20027;-74
2022/03/04 03:06:26;;;;;;;0.17;0.17;;;;;;;;;;4992828;28;20053;-74
2022/03/04 03:08:51;;;;;;;0.63;0.63;;;;;;;;;;4988772;28;20034;-73
2022/03/04 03:11:19;;;;;;;0.30;0.30;;;;;;;;;;4986471;28;20019;-72
2022/03/04 03:13:44;;;;;;;2.28;2.08;;;;;;;;;;4993398;28;20018;-73
2022/03/04 03:16:12;;;;;;;1.35;1.15;;;;;;;;;;4996195;28;20034;-72
2022/03/04 03:18:39;;;;;;;1.60;1.50;;;;;;;;;;4972642;28;20117;-73
2022/03/04 03:21:09;;;;;;;1.05;1.05;;;;;;;;;;4992940;28;20118;-73
2022/03/04 03:23:37;;;;;;;3.47;1.92;;;;;;;;;;4979905;28;20637;-73
2022/03/04 03:26:03;;;;;;;0.98;0.68;;;;;;;;;;4989467;28;20030;-72
2022/03/04 03:28:31;;;;;;;2.22;1.88;;;;;;;;;;4995800;28;20032;-73
2022/03/04 03:30:56;;;;;;;0.73;0.73;;;;;;;;;;4978939;28;20022;-72
2022/03/04 03:33:21;;;;;;;0.10;0.10;;;;;;;;;;4982497;28;20038;-73
2022/03/04 03:35:54;;;;;;;1.33;1.23;;;;;;;;;;4992545;28;20446;-73
2022/03/04 03:38:19;;;;;;;;;;;;;;;;;;4992064;28;20041;-73
2022/03/04 03:40:47;;;;;;;0.75;0.75;;;;;;;;;;4976338;28;19910;-73
2022/03/04 03:43:17;;;;;;;0.50;0.50;;;;;;;;;;4976963;28;20027;-74
2022/03/04 03:45:42;;;;;;;0.03;0.03;;;;;;;;;;4975836;28;20446;-74
2022/03/04 03:48:12;;;;;;;0.75;0.75;;;;;;;;;;4981733;28;20114;-74
2022/03/04 03:50:40;;;;;;;3.75;2.78;;;;;;;;;;4993332;28;20366;-74
2022/03/04 03:53:10;;;;;;;0.40;0.40;;;;;;;;;;4985176;28;20057;-74
2022/03/04 03:55:35;;;;;;;2.08;1.80;;;;;;;;;;4982844;28;20031;-73
2022/03/04 03:58:01;;;;;;;0.95;0.95;;;;;;;;;;4976688;28;20022;-74
2022/03/04 04:00:29;;;;;;;3.95;1.83;;;;;;;;;;4985617;28;20070;-74
2022/03/04 04:02:56;;;;;;;1.40;1.17;;;;;;;;;;4984492;28;20023;-74
2022/03/04 04:05:22;;;;;;;3.55;1.85;;;;;;;;;;4989116;28;20023;-73
2022/03/04 04:07:49;;;;;;;1.80;1.70;;;;;;;;;;4982652;28;20030;-73
2022/03/04 04:10:17;;;;;;;0.20;0.20;;;;;;;;;;4980061;28;20077;-73
2022/03/04 04:12:42;;;;;;;0.40;0.40;;;;;;;;;;4995061;28;20509;-73
2022/03/04 04:15:10;;;;;;;2.45;1.45;;;;;;;;;;4981325;28;20034;-74
2022/03/04 04:17:38;;;;;;;0.63;0.63;;;;;;;;;;4988440;28;20034;-74
2022/03/04 04:20:04;;;;;;;0.25;0.25;;;;;;;;;;4994796;28;20172;-74
2022/03/04 04:22:29;;;;;;;2.30;1.05;;;;;;;;;;4989718;28;20106;-74
2022/03/04 04:24:54;;;;;;;0.43;0.43;;;;;;;;;;4981359;28;20019;-73
2022/03/04 04:27:22;;;;;;;0.70;0.70;;;;;;;;;;4975059;28;20462;-74
2022/03/04 04:29:47;;;;;;;0.32;0.32;;;;;;;;;;4982237;28;20109;-74
2022/03/04 04:32:15;;;;;;;0.20;0.20;;;;;;;;;;4982925;28;20118;-73
2022/03/04 04:34:43;;;;;;;1.45;1.17;;;;;;;;;;4975744;28;20039;-73
2022/03/04 04:37:11;;;;;;;0.57;0.57;;;;;;;;;;4981870;28;20034;-74
2022/03/04 04:39:39;;;;;;;1.10;1.10;;;;;;;;;;4985053;28;20088;-73
2022/03/04 04:42:09;;;;;;;2.75;1.75;;;;;;;;;;4985329;28;20142;-73
2022/03/04 04:44:37;;;;;;;1.13;0.93;;;;;;;;;;4975780;28;20045;-73
2022/03/04 04:47:02;;;;;;;1.02;1.02;;;;;;;;;;4977874;28;20022;-73
2022/03/04 04:49:34;;;;;;;1.13;1.02;;;;;;;;;;4994231;28;20073;-73
2022/03/04 04:52:01;;;;;;;0.20;0.20;;;;;;;;;;4994394;28;20361;-73
2022/03/04 04:54:27;;;;;;;1.67;1.35;;;;;;;;;;4983282;28;20029;-74
2022/03/04 04:56:52;;;;;;;4.35;2.60;;;;;;;;;;4981788;28;20026;-74
2022/03/04 04:59:22;;;;;;;0.63;0.63;;;;;;;;;;4978541;28;20461;-73
2022/03/04 05:01:49;;;;;;;0.98;0.98;;;;;;;;;;4984530;28;20026;-74
2022/03/04 05:04:17;;;;;;;0.68;0.68;;;;;;;;;;4990878;28;20038;-73
2022/03/04 05:06:46;;;;;;;0.95;0.95;;;;;;;;;;4989920;28;20015;-73
2022/03/04 05:09:13;;;;;;;1.20;1.10;;;;;;;;;;4984833;28;20030;-73
2022/03/04 05:11:41;;;;;;;1.20;1.15;;;;;;;;;;4993664;28;20189;-73
2022/03/04 05:14:09;;;;;;;4.25;2.70;;;;;;;;;;4993933;28;20049;-73
2022/03/04 05:16:37;;;;;;;0.77;0.73;;;;;;;;;;4987577;28;20027;-75
2022/03/04 05:19:08;;;;;;;2.90;2.63;;;;;;;;;;4993982;28;20106;-72
2022/03/04 05:21:34;;;;;;;1.42;1.33;;;;;;;;;;4977551;28;20019;-74
2022/03/04 05:24:00;;;;;;;1.55;1.35;;;;;;;;;;4985713;28;20030;-75
2022/03/04 05:26:35;;;;;;;0.43;0.43;;;;;;;;;;4977026;28;20363;-73
2022/03/04 05:29:03;;;;;;;0.38;0.38;;;;;;;;;;4986666;28;20111;-73
2022/03/04 05:31:31;;;;;;;0.98;0.95;;;;;;;;;;4980331;28;20304;-73
2022/03/04 05:33:59;;;;;;;0.57;0.57;;;;;;;;;;4992790;28;20026;-74
2022/03/04 05:36:29;;;;;;;0.73;0.73;;;;;;;;;;4982581;28;20622;-73
2022/03/04 05:38:55;;;;;;;0.40;0.40;;;;;;;;;;4992535;28;20030;-73
2022/03/04 05:41:24;;;;;;;0.70;0.70;;;;;;;;;;4993885;28;20465;-74
2022/03/04 05:43:50;;;;;;;0.90;0.63;;;;;;;;;;4990621;28;20349;-76
2022/03/04 05:46:18;;;;;;;1.42;1.30;;;;;;;;;;4980888;28;20030;-73
2022/03/04 05:48:44;;;;;;;0.77;0.77;;;;;;;;;;4979785;28;20053;-73
2022/03/04 05:51:10;;;;;;;0.28;0.28;;;;;;;;;;4976647;28;20117;-73
2022/03/04 05:53:38;;;;;;;0.85;0.85;;;;;;;;;;4987202;28;20415;-73
2022/03/04 05:56:05;;;;;;;0.90;0.90;;;;;;;;;;4985252;28;20031;-73
2022/03/04 05:58:33;;;;;;;1.48;0.85;;;;;;;;;;4981091;28;20343;-73
2022/03/04 06:00:58;;;;;;;0.22;0.22;;;;;;;;;;4985887;28;20027;-73
2022/03/04 06:03:23;;;;;;;0.93;0.93;;;;;;;;;;4983685;28;20045;-74
2022/03/04 06:05:51;;;;;;;1.90;1.42;;;;;;;;;;4987888;28;20030;-73
2022/03/04 06:08:19;;;;;;;1.45;1.35;;;;;;;;;;4979804;28;20037;-73
2022/03/04 06:10:47;;;;;;;3.00;2.35;;;;;;;;;;4983769;28;20122;-74
2022/03/04 06:13:13;;;;;;;0.82;0.73;;;;;;;;;;4979206;28;20023;-74
2022/03/04 06:15:38;;;;;;;0.77;0.77;;;;;;;;;;4991105;28;20485;-73
2022/03/04 06:18:03;;;;;;;0.45;0.45;;;;;;;;;;4979591;28;20027;-76
2022/03/04 06:20:29;;;;;;;2.15;1.20;;;;;;;;;;4978527;28;20409;-74
2022/03/04 06:22:59;;;;;;;1.77;1.67;;;;;;;;;;4982741;28;20458;-73
2022/03/04 06:25:25;;;;;;;1.98;1.33;;;;;;;;;;4977658;28;20039;-74
2022/03/04 06:28:03;;;;;;;1.00;1.00;;;;;;;;;;4978337;28;20034;-74
2022/03/04 06:30:38;;;;;;;1.52;1.40;;;;;;;;;;4980115;28;20042;-74
2022/03/04 06:35:53;;;;;;;0.25;0.25;;;;;;;;;;4996477;28;20057;-73
2022/03/04 06:38:19;;;;;;;0.80;0.80;;;;;;;;;;4990643;28;20173;-74
2022/03/04 06:40:46;;;;;;;1.83;1.27;;;;;;;;;;4981245;28;20117;-74
2022/03/04 06:43:11;;;;;;;1.00;0.93;;;;;;;;;;4981101;28;20030;-74
2022/03/04 06:45:40;;;;;;;0.40;0.40;;;;;;;;;;4977030;28;20160;-74
2022/03/04 06:48:08;;;;;;;1.85;1.75;;;;;;;;;;4976869;28;20050;-74
2022/03/04 06:50:38;;;;;;;1.05;1.05;;;;;;;;;;4992897;28;20435;-74
2022/03/04 06:53:06;;;;;;;0.88;0.68;;;;;;;;;;4980892;28;20031;-74
2022/03/04 06:55:34;;;;;;;2.30;0.47;;;;;;;;;;4982773;28;20062;-74
2022/03/04 06:58:05;;;;;;;1.30;1.08;;;;;;;;;;4990586;28;20364;-74
2022/03/04 07:00:30;;;;;;;0.38;0.38;;;;;;;;;;4996533;28;20034;-73
2022/03/04 07:02:58;;;;;;;1.20;1.17;;;;;;;;;;4986778;28;20027;-74
2022/03/04 07:05:23;;;;;;;0.75;0.75;;;;;;;;;;4993690;28;20037;-73
2022/03/04 07:07:52;;;;;;;0.32;0.32;;;;;;;;;;4980198;28;20035;-74
2022/03/04 07:10:20;;;;;;;1.85;1.75;;;;;;;;;;4978233;28;20037;-73
2022/03/04 07:12:48;;;;;;;2.58;1.15;;;;;;;;;;4979354;28;20106;-74
2022/03/04 07:15:16;;;;;;;0.32;0.32;;;;;;;;;;4975154;28;20029;-73
2022/03/04 07:17:42;;;;;;;1.35;1.25;;;;;;;;;;4989758;28;20033;-73
2022/03/04 07:20:08;;;;;;;0.55;0.55;;;;;;;;;;4987327;28;20026;-74
2022/03/04 07:22:36;;;;;;;1.33;1.30;;;;;;;;;;4981850;28;20030;-74
2022/03/04 07:25:07;;;;;;;2.65;2.45;;;;;;;;;;4988386;28;20034;-74
2022/03/04 07:27:35;;;;;;;0.90;0.47;;;;;;;;;;4985491;28;20022;-73
2022/03/04 07:30:02;;;;;;;3.13;2.78;;;;;;;;;;4982796;28;20027;-74
2022/03/04 07:32:32;;;;;;;0.80;0.80;;;;;;;;;;4981077;28;20041;-74
2022/03/04 07:34:57;;;;;;;2.47;2.20;;;;;;;;;;4991555;28;20030;-73
2022/03/04 07:37:25;;;;;;;4.03;1.67;;;;;;;;;;4982455;28;20370;-74
2022/03/04 07:39:53;;;;;;;0.60;0.60;;;;;;;;;;4975827;28;20029;-73
2022/03/04 07:42:18;;;;;;;2.38;2.22;;;;;;;;;;4986350;28;20037;-74
2022/03/04 07:44:46;;;;;;;0.98;0.98;;;;;;;;;;4978042;28;20035;-74
2022/03/04 07:47:12;;;;;;;0.25;0.25;;;;;;;;;;4989605;28;20022;-73
2022/03/04 07:49:37;;;;;;;3.72;1.08;;;;;;;;;;4984230;28;20342;-73
2022/03/04 07:52:05;;;;;;;0.47;0.47;;;;;;;;;;4994604;28;20054;-75
2022/03/04 07:54:33;;;;;;;1.23;1.17;;;;;;;;;;4991636;28;20023;-73
2022/03/04 07:57:00;;;;;;;1.48;1.38;;;;;;;;;;4991789;28;20030;-73
2022/03/04 07:59:26;;;;;;;1.55;1.45;;;;;;;;;;4978645;28;20031;-73
2022/03/04 08:01:51;;;;;;;0.80;0.80;;;;;;;;;;4975440;28;20030;-73
2022/03/04 08:04:16;;;;;;;0.68;0.68;;;;;;;;;;4985828;28;20030;-74
2022/03/04 08:06:42;;;;;;;0.75;0.75;;;;;;;;;;4979536;28;20037;-74
2022/03/04 08:09:07;;;;;;;0.85;0.85;;;;;;;;;;4975196;28;20022;-72
2022/03/04 08:11:34;;;;;;;0.65;0.65;;;;;;;;;;4988150;28;20416;-74
2022/03/04 08:14:01;;;;;;;2.88;2.60;;;;;;;;;;4988461;28;20037;-74
2022/03/04 08:16:29;;;;;;;1.63;1.13;;;;;;;;;;4994611;28;20034;-74
2022/03/04 08:18:56;;;;;;;3.80;2.92;;;;;;;;;;4978780;28;20034;-75
2022/03/04 08:21:23;;;;;;;2.38;1.83;;;;;;;;;;4983828;28;20135;-74
2022/03/04 08:23:49;;;;;;;1.58;1.48;;;;;;;;;;4994874;28;20033;-74
2022/03/04 08:26:14;;;;;;;4.25;3.28;;;;;;;;;;4984623;28;20113;-74
2022/03/04 08:28:39;;;;;;;3.55;3.15;;;;;;;;;;4981655;28;20022;-74
2022/03/04 08:31:15;;;;;;;2.58;2.17;;;;;;;;;;4980503;28;20026;-74
2022/03/04 08:33:45;;;;;;;2.00;1.67;;;;;;;;;;4989892;28;20508;-74
2022/03/04 08:36:11;;;;;;;2.30;1.95;;;;;;;;;;4975094;28;20026;-74
2022/03/04 08:38:36;;;;;;;2.75;2.22;;;;;;;;;;4985520;28;20018;-74
2022/03/04 08:41:02;;;;;;;4.53;2.78;;;;;;;;;;4999145;28;20030;-74
2022/03/04 08:43:31;;;;;;;1.85;1.75;;;;;;;;;;4994863;28;20037;-74
2022/03/04 08:46:03;;;;;;;4.53;4.10;;;;;;;;;;4987659;28;20035;-75
2022/03/04 08:48:31;;;;;;;4.47;3.05;;;;;;;;;;5011763;28;20021;-75
2022/03/04 08:50:59;;;;;;;2.63;2.38;;;;;;;;;;4994612;28;20444;-74
2022/03/04 08:53:24;;;;;;;3.33;2.55;;;;;;;;;;4989254;28;20029;-75
2022/03/04 08:55:50;;;;;;;3.13;2.08;;;;;;;;;;4991714;28;20039;-75
2022/03/04 08:58:18;;;;;;;2.22;1.40;;;;;;;;;;4990628;28;20027;-75
2022/03/04 09:00:48;;;;;;;2.03;1.67;;;;;;;;;;4986834;28;20029;-74
2022/03/04 09:03:13;;;;;;;3.40;3.10;;;;;;;;;;4982408;28;20031;-73
2022/03/04 09:05:39;;;;;;;1.88;1.73;;;;;;;;;;4989660;28;20101;-73
2022/03/04 09:08:04;;;;;;;4.65;3.22;;;;;;;;;;4984392;28;20029;-75
2022/03/04 09:10:32;;;;;;;2.05;1.95;;;;;;;;;;4985074;28;20031;-75
2022/03/04 09:13:00;;;;;;;3.83;1.85;;;;;;;;;;4998050;28;20053;-74
2022/03/04 09:15:26;;;;;;;3.97;2.25;;;;;;;;;;5001793;28;20029;-75
2022/03/04 09:17:53;;;;;;;2.55;1.80;;;;;;;;;;4999730;28;20029;-76
2022/03/04 09:20:19;;;;;;;3.42;3.13;;;;;;;;;;4991676;28;20036;-76
2022/03/04 09:22:45;;;;;;;2.95;1.70;;;;;;;;;;4979213;28;20077;-76
2022/03/04 09:25:11;;;;;;;3.63;3.10;;;;;;;;;;4987947;28;20453;-77
2022/03/04 09:27:42;;;;;;;4.20;2.80;;;;;;;;;;4975881;28;20041;-75
2022/03/04 09:30:08;;;;;;;2.95;2.60;;;;;;;;;;4984854;28;20073;-76
2022/03/04 09:32:34;;;;;;;3.17;1.63;;;;;;;;;;4987373;28;20576;-75
2022/03/04 09:34:59;;;;;;;2.25;2.05;;;;;;;;;;4985223;28;20061;-75
2022/03/04 09:37:25;;;;;;;2.88;2.65;;;;;;;;;;4989770;28;20026;-76
2022/03/04 09:39:53;;;;;;;2.75;1.60;;;;;;;;;;4995030;28;20018;-77
2022/03/04 09:42:21;;;;;;;3.33;2.88;;;;;;;;;;4986108;28;20034;-76
2022/03/04 09:44:46;;;;;;;20.48;2.08;;;;;;;;;;4980171;28;20042;-76
2022/03/04 09:47:16;;;;;;;1.73;1.45;;;;;;;;;;4989683;28;20026;-75
2022/03/04 09:49:44;;;;;;;5.10;3.28;;;;;;;;;;4992354;28;20025;-75
2022/03/04 09:52:12;;;;;;;2.67;2.38;;;;;;;;;;4983269;28;20542;-75
2022/03/04 09:54:42;;;;;;;5.57;2.95;;;;;;;;;;4993128;28;20113;-75
2022/03/04 09:57:13;;;;;;;4.70;3.42;;;;;;;;;;4994424;28;20545;-75
2022/03/04 09:59:41;;;;;;;2.33;1.85;;;;;;;;;;4993885;28;20033;-75
2022/03/04 10:02:09;;;;;;;5.20;2.85;;;;;;;;;;4986826;28;20029;-74
2022/03/04 10:04:39;;;;;;;4.75;2.70;;;;;;;;;;4990011;28;20031;-75
2022/03/04 10:07:16;;;;;;;5.75;2.75;;;;;;;;;;4992876;28;20041;-75
2022/03/04 10:09:44;;;;;;;7.13;3.30;;;;;;;;;;4986113;28;20030;-75
2022/03/04 10:12:11;;;;;;;4.47;3.30;;;;;;;;;;4990728;28;20093;-73
2022/03/04 10:14:55;;;;;;;2.42;2.17;;;;;;;;;;4996895;28;20037;-73
2022/03/04 10:17:23;;;;;;;3.05;2.72;;;;;;;;;;4999803;28;20084;-74
2022/03/04 10:19:56;;;;;;;3.70;2.63;;;;;;;;;;4987487;28;20022;-74
2022/03/04 10:22:22;;;;;;;2.92;2.40;;;;;;;;;;4987952;28;20030;-74
2022/03/04 10:24:50;;;;;;;3.85;1.98;;;;;;;;;;4993918;28;20105;-73
2022/03/04 10:27:21;;;;;;;3.70;2.53;;;;;;;;;;4984129;28;20039;-75
2022/03/04 10:29:53;;;;;;;2.28;1.40;;;;;;;;;;4983871;28;20054;-74
2022/03/04 10:32:19;;;;;;;3.53;2.37;;;;;;;;;;4989752;28;20054;-75
2022/03/04 10:34:45;;;;;;;6.32;2.95;;;;;;;;;;4991523;28;20275;-75
2022/03/04 10:37:13;;;;;;;2.33;1.90;;;;;;;;;;4984132;28;20023;-75
2022/03/04 10:40:02;;;;;;;3.97;3.55;;;;;;;;;;4993579;28;20030;-74
2022/03/04 10:42:37;;;;;;;2.13;1.90;;;;;;;;;;4989435;28;20099;-76
2022/03/04 10:45:10;;;;;;;3.25;2.33;;;;;;;;;;5003778;28;20034;-74
2022/03/04 10:47:52;;;;;;;3.78;2.55;;;;;;;;;;4989550;28;20018;-76
2022/03/04 10:50:28;;;;;;;5.68;3.30;;;;;;;;;;4982294;28;20480;-75
2022/03/04 10:52:57;;;;;;;1.92;1.42;;;;;;;;;;4987854;28;20382;-76
2022/03/04 10:55:35;;;;;;;7.20;5.82;;;;;;;;;;4997862;28;20030;-81
2022/03/04 10:58:36;;;;;;;25.45;10.10;;;;;;;;;;4983908;28;20419;-77
2022/03/04 11:01:28;;;;;;;6.75;5.35;;;;;;;;;;4989050;28;20081;-78
2022/03/04 11:03:53;;;;;;;2.23;2.03;;;;;;;;;;4970212;28;20512;-77
2022/03/04 11:06:21;;;;;;;4.95;4.15;;;;;;;;;;4994569;28;20285;-77
2022/03/04 11:09:17;;;;;;;2.80;1.85;;;;;;;;;;4985277;28;20030;-77
2022/03/04 11:11:49;;;;;;;4.13;2.33;;;;;;;;;;4996179;28;20023;-77
2022/03/04 11:14:14;;;;;;;5.28;2.33;;;;;;;;;;4992755;28;20061;-76
2022/03/04 11:16:43;;;;;;;3.10;1.92;;;;;;;;;;4986096;28;20415;-77
2022/03/04 11:19:11;;;;;;;8.73;3.40;;;;;;;;;;4994022;28;20366;-76
2022/03/04 11:21:45;;;;;;;5.07;2.72;;;;;;;;;;4992995;28;20398;-77
2022/03/04 11:24:16;;;;;;;4.72;2.80;;;;;;;;;;4991430;28;20109;-76
2022/03/04 11:26:45;;;;;;;3.17;2.88;;;;;;;;;;4989147;28;20410;-76
2022/03/04 11:29:38;;;;;;;3.78;2.47;;;;;;;;;;5008135;28;20034;-75
2022/03/04 11:32:07;;;;;;;2.47;2.20;;;;;;;;;;4988281;28;20370;-75
2022/03/04 11:34:34;;;;;;;4.60;2.88;;;;;;;;;;4988951;28;20042;-75
2022/03/04 11:37:06;;;;;;;2.55;2.00;;;;;;;;;;4988082;28;20093;-76
2022/03/04 11:40:01;;;;;;;4.68;1.98;;;;;;;;;;4986807;28;20410;-76
2022/03/04 11:42:35;;;;;;;5.13;2.20;;;;;;;;;;4990463;28;20030;-75
2022/03/04 11:45:02;;;;;;;5.55;3.20;;;;;;;;;;4993825;28;20022;-75
2022/03/04 11:47:37;;;;;;;6.35;2.50;;;;;;;;;;4994879;28;20022;-74
2022/03/04 11:50:24;;;;;;;7.53;2.80;;;;;;;;;;4985229;28;20425;-73
2022/03/04 11:52:50;;;;;;;4.68;2.28;;;;;;;;;;4993071;28;20057;-73
2022/03/04 11:55:21;;;;;;;4.78;3.08;;;;;;;;;;4988593;28;20038;-75
2022/03/04 11:57:50;;;;;;;7.10;3.30;;;;;;;;;;4990752;28;20045;-75
2022/03/04 12:00:18;;;;;;;1.80;1.38;;;;;;;;;;4983670;28;20449;-75
2022/03/04 12:02:51;;;;;;;3.40;1.98;;;;;;;;;;4982592;28;20030;-75
2022/03/04 12:05:21;;;;;;;3.85;1.73;;;;;;;;;;5001454;28;20031;-75
2022/03/04 12:08:07;;;;;;;3.75;2.72;;;;;;;;;;4985045;28;20319;-76
2022/03/04 12:10:44;;;;;;;4.57;2.97;;;;;;;;;;4981491;28;20038;-75
2022/03/04 12:13:26;;;;;;;5.50;3.00;;;;;;;;;;4981746;28;20057;-75
2022/03/04 12:15:58;;;;;;;4.22;2.42;;;;;;;;;;4981669;28;20398;-76
2022/03/04 12:18:25;;;;;;;3.17;2.50;;;;;;;;;;5008589;28;20115;-74
2022/03/04 12:20:56;;;;;;;2.17;1.85;;;;;;;;;;4991803;28;20441;-75
2022/03/04 12:23:29;;;;;;;3.88;2.50;;;;;;;;;;4991667;28;20396;-75
2022/03/04 12:28:24;;;;;;;2.92;2.55;;;;;;;;;;4982555;28;20114;-75
2022/03/04 12:31:01;;;;;;;4.88;2.00;;;;;;;;;;4982623;28;20038;-75
2022/03/04 12:33:39;;;;;;;2.38;2.17;;;;;;;;;;4980911;28;20125;-74
2022/03/04 12:36:09;;;;;;;4.15;2.28;;;;;;;;;;4977656;28;20106;-74
2022/03/04 12:38:38;;;;;;;3.63;2.78;;;;;;;;;;4992013;28;20026;-74
2022/03/04 12:41:04;;;;;;;3.70;2.65;;;;;;;;;;4990006;28;20086;-75
2022/03/04 12:43:39;;;;;;;2.55;2.22;;;;;;;;;;4982810;28;20636;-75
2022/03/04 12:46:09;;;;;;;6.30;1.83;;;;;;;;;;4982556;28;20114;-75
2022/03/04 12:48:37;;;;;;;3.20;1.83;;;;;;;;;;4993764;28;20041;-76
2022/03/04 12:51:22;;;;;;;1.67;1.40;;;;;;;;;;4984277;28;20026;-75
2022/03/04 12:53:50;;;;;;;3.00;2.08;;;;;;;;;;5002036;28;20169;-77
2022/03/04 12:56:20;;;;;;;3.83;2.97;;;;;;;;;;4986072;28;20022;-76
2022/03/04 12:58:52;;;;;;;3.38;2.53;;;;;;;;;;4984984;28;20022;-77
2022/03/04 13:01:21;;;;;;;;;;;;;;;;;;4985891;28;20026;-75
2022/03/04 13:03:57;;;;;;;2.70;2.50;;;;;;;;;;4981949;28;19913;-76
2022/03/04 13:06:27;;;;;;;2.08;1.92;;;;;;;;;;4988734;28;20030;-77
2022/03/04 13:08:54;;;;;;;3.28;1.67;;;;;;;;;;4984787;28;20030;-77
2022/03/04 13:11:33;;;;;;;3.20;2.10;;;;;;;;;;4987703;28;20045;-75
2022/03/04 13:14:26;;;;;;;3.47;2.70;;;;;;;;;;4963238;28;20042;-78
2022/03/04 13:16:55;;;;;;;3.50;3.00;;;;;;;;;;4984417;28;20038;-78
2022/03/04 13:19:39;;;;;;;5.88;2.38;;;;;;;;;;4987238;28;20034;-76
2022/03/04 13:22:14;;;;;;;2.85;2.15;;;;;;;;;;4983119;28;20058;-76
2022/03/04 13:24:58;;;;;;;3.03;2.05;;;;;;;;;;4989650;28;20031;-78
2022/03/04 13:27:26;;;;;;;1.02;1.02;;;;;;;;;;5002148;28;20022;-75
2022/03/04 13:30:06;;;;;;;2.28;2.00;;;;;;;;;;4974602;28;20113;-75
2022/03/04 13:32:41;;;;;;;3.28;2.08;;;;;;;;;;4987991;28;20085;-75
2022/03/04 13:35:10;;;;;;;2.63;1.45;;;;;;;;;;4992409;28;20022;-76
2022/03/04 13:37:45;;;;;;;3.08;1.95;;;;;;;;;;4978101;28;20034;-75
2022/03/04 13:40:25;;;;;;;1.33;1.20;;;;;;;;;;4974374;28;20027;-76
2022/03/04 13:42:58;;;;;;;2.10;2.00;;;;;;;;;;4991941;28;20453;-76
2022/03/04 13:45:32;;;;;;;;;;;;;;;;;;4990440;28;20093;-77
2022/03/04 13:48:02;;;;;;;3.35;1.48;;;;;;;;;;4980460;28;19929;-76
2022/03/04 13:50:32;;;;;;;3.25;2.25;;;;;;;;;;4981727;28;20049;-74
2022/03/04 13:53:06;;;;;;;1.58;1.17;;;;;;;;;;4986274;28;20030;-77
2022/03/04 13:55:45;;;;;;;1.48;1.38;;;;;;;;;;4984689;28;20034;-78
2022/03/04 13:58:18;;;;;;;1.60;1.50;;;;;;;;;;4983798;28;20450;-77
2022/03/04 14:00:49;;;;;;;2.90;2.53;;;;;;;;;;4991501;28;20027;-76
2022/03/04 14:03:17;;;;;;;2.10;1.73;;;;;;;;;;4984564;28;20041;-77
2022/03/04 14:05:46;;;;;;;0.90;0.85;;;;;;;;;;4991534;28;20018;-77
2022/03/04 14:08:13;;;;;;;3.33;1.73;;;;;;;;;;4990180;28;20023;-77
2022/03/04 14:10:42;;;;;;;3.20;1.20;;;;;;;;;;5003328;28;20018;-78
2022/03/04 14:13:11;;;;;;;1.83;0.88;;;;;;;;;;4989398;28;20456;-79
2022/03/04 14:16:03;;;;;;;2.55;2.13;;;;;;;;;;4987831;28;20049;-75
2022/03/04 14:18:30;;;;;;;1.75;1.15;;;;;;;;;;4986634;28;20050;-80
2022/03/04 14:21:03;;;;;;;4.15;2.10;;;;;;;;;;4989762;28;20460;-77
2022/03/04 14:23:36;;;;;;;2.67;1.98;;;;;;;;;;4991604;28;20109;-78
2022/03/04 14:26:05;;;;;;;2.75;1.92;;;;;;;;;;4990627;28;20018;-76
2022/03/04 14:28:36;;;;;;;4.20;2.58;;;;;;;;;;5005942;28;20049;-78
2022/03/04 14:31:02;;;;;;;4.53;1.50;;;;;;;;;;4992566;28;20077;-75
2022/03/04 14:33:30;;;;;;;1.65;1.00;;;;;;;;;;4992810;28;20049;-79
2022/03/04 14:36:01;;;;;;;1.50;1.35;;;;;;;;;;5006227;28;20033;-77
2022/03/04 14:38:27;;;;;;;0.77;0.77;;;;;;;;;;4991177;28;20018;-78
2022/03/04 14:40:52;;;;;;;4.35;1.10;;;;;;;;;;4986776;28;20562;-77
2022/03/04 14:43:23;;;;;;;1.55;1.23;;;;;;;;;;4985153;28;20030;-77
2022/03/04 14:45:48;;;;;;;9.48;4.45;;;;;;;;;;4995077;28;20014;-77
2022/03/04 14:48:14;;;;;;;5.70;1.73;;;;;;;;;;4991950;28;20356;-78
2022/03/04 14:50:42;;;;;;;3.22;2.83;;;;;;;;;;4996110;28;20026;-77
2022/03/04 14:53:07;;;;;;;3.20;2.33;;;;;;;;;;4992721;28;20461;-77
2022/03/04 14:55:36;;;;;;;2.47;1.55;;;;;;;;;;4996450;28;20097;-79
2022/03/04 14:58:05;;;;;;;1.27;1.17;;;;;;;;;;4977845;28;20040;-77
2022/03/04 15:00:59;;;;;;;3.67;1.48;;;;;;;;;;4984648;28;20089;-76